Terminal Aerodrome Forecast
Issued by NWS

Home | Current Version | Previous Version | Text Only | Print | Product List | Glossary On
Versions: 1 2 3 4 5 6 7 8 9 10 11 12 13 14 15 16 17 18 19 20 21 22
000
FTUS45 KSLC 210828 AAA
TAFOGD
TAF AMD
KOGD 210828Z 2108/2206 16011KT P6SM VCSH SCT090 BKN180
      TEMPO 2108/2110 VRB15G25KT -TSRA BKN090CB
     FM211000 17008KT P6SM FEW080 SCT140
     FM211800 30007KT P6SM FEW080 SCT200
     FM220300 17006KT P6SM SKC=

USA.gov is the U.S. government's official web portal to all federal, state and local government web resources and services.